sensor_id;sensor_type;location;lat;lon;timestamp;P1;durP1;ratioP1;P2;durP2;ratioP2
63087;SDS011;49173;43.164;27.786;2022-12-24T00:01:07;34.75;;;22.88;;
63087;SDS011;49173;43.164;27.786;2022-12-24T00:03:35;43.60;;;28.58;;
63087;SDS011;49173;43.164;27.786;2022-12-24T00:06:05;36.08;;;24.35;;
63087;SDS011;49173;43.164;27.786;2022-12-24T00:08:33;35.63;;;22.80;;
63087;SDS011;49173;43.164;27.786;2022-12-24T00:10:59;33.55;;;22.88;;
63087;SDS011;49173;43.164;27.786;2022-12-24T00:13:25;36.33;;;24.00;;
63087;SDS011;49173;43.164;27.786;2022-12-24T00:15:51;73.90;;;33.92;;
63087;SDS011;49173;43.164;27.786;2022-12-24T00:18:16;54.03;;;29.48;;
63087;SDS011;49173;43.164;27.786;2022-12-24T00:20:48;37.85;;;26.02;;
63087;SDS011;49173;43.164;27.786;2022-12-24T00:23:14;40.30;;;25.65;;
63087;SDS011;49173;43.164;27.786;2022-12-24T00:25:41;34.47;;;24.23;;
63087;SDS011;49173;43.164;27.786;2022-12-24T00:28:07;36.03;;;24.75;;
63087;SDS011;49173;43.164;27.786;2022-12-24T00:30:33;40.42;;;27.05;;
63087;SDS011;49173;43.164;27.786;2022-12-24T00:33:00;45.50;;;25.83;;
63087;SDS011;49173;43.164;27.786;2022-12-24T00:35:25;43.65;;;27.65;;
63087;SDS011;49173;43.164;27.786;2022-12-24T00:37:51;55.17;;;30.15;;
63087;SDS011;49173;43.164;27.786;2022-12-24T00:40:17;44.13;;;25.92;;
63087;SDS011;49173;43.164;27.786;2022-12-24T00:42:43;70.50;;;32.80;;
63087;SDS011;49173;43.164;27.786;2022-12-24T00:45:09;72.53;;;35.22;;
63087;SDS011;49173;43.164;27.786;2022-12-24T00:47:35;54.33;;;28.58;;
63087;SDS011;49173;43.164;27.786;2022-12-24T00:50:01;52.92;;;28.98;;
63087;SDS011;49173;43.164;27.786;2022-12-24T00:52:28;40.33;;;23.48;;
63087;SDS011;49173;43.164;27.786;2022-12-24T00:54:53;30.88;;;20.10;;
63087;SDS011;49173;43.164;27.786;2022-12-24T00:57:19;50.17;;;28.17;;
63087;SDS011;49173;43.164;27.786;2022-12-24T00:59:45;33.75;;;23.70;;
63087;SDS011;49173;43.164;27.786;2022-12-24T01:02:10;43.85;;;25.02;;
63087;SDS011;49173;43.164;27.786;2022-12-24T01:04:36;55.95;;;29.85;;
63087;SDS011;49173;43.164;27.786;2022-12-24T01:07:20;61.85;;;32.47;;
63087;SDS011;49173;43.164;27.786;2022-12-24T01:09:46;51.75;;;28.20;;
63087;SDS011;49173;43.164;27.786;2022-12-24T01:12:12;36.03;;;23.10;;
63087;SDS011;49173;43.164;27.786;2022-12-24T01:14:37;36.35;;;21.85;;
63087;SDS011;49173;43.164;27.786;2022-12-24T01:17:03;34.33;;;23.08;;
63087;SDS011;49173;43.164;27.786;2022-12-24T01:19:29;35.78;;;23.60;;
63087;SDS011;49173;43.164;27.786;2022-12-24T01:21:55;35.03;;;22.90;;
63087;SDS011;49173;43.164;27.786;2022-12-24T01:24:20;49.63;;;27.13;;
63087;SDS011;49173;43.164;27.786;2022-12-24T01:26:46;193.55;;;69.60;;
63087;SDS011;49173;43.164;27.786;2022-12-24T01:29:12;117.57;;;47.38;;
63087;SDS011;49173;43.164;27.786;2022-12-24T01:31:37;49.00;;;27.85;;
63087;SDS011;49173;43.164;27.786;2022-12-24T01:34:03;38.53;;;22.30;;
63087;SDS011;49173;43.164;27.786;2022-12-24T01:36:29;33.67;;;22.33;;
63087;SDS011;49173;43.164;27.786;2022-12-24T01:38:54;30.45;;;21.25;;
63087;SDS011;49173;43.164;27.786;2022-12-24T01:41:21;36.30;;;20.80;;
63087;SDS011;49173;43.164;27.786;2022-12-24T01:44:16;33.53;;;21.20;;
63087;SDS011;49173;43.164;27.786;2022-12-24T01:46:41;34.85;;;22.48;;
63087;SDS011;49173;43.164;27.786;2022-12-24T01:49:07;34.35;;;22.50;;
63087;SDS011;49173;43.164;27.786;2022-12-24T01:51:41;36.83;;;22.10;;
63087;SDS011;49173;43.164;27.786;2022-12-24T01:54:18;32.42;;;20.48;;
63087;SDS011;49173;43.164;27.786;2022-12-24T01:56:52;37.05;;;20.83;;
63087;SDS011;49173;43.164;27.786;2022-12-24T01:59:21;28.85;;;18.75;;
63087;SDS011;49173;43.164;27.786;2022-12-24T02:01:47;27.02;;;17.33;;
63087;SDS011;49173;43.164;27.786;2022-12-24T02:04:18;28.23;;;17.30;;
63087;SDS011;49173;43.164;27.786;2022-12-24T02:06:46;27.90;;;17.65;;
63087;SDS011;49173;43.164;27.786;2022-12-24T02:09:13;26.33;;;18.23;;
63087;SDS011;49173;43.164;27.786;2022-12-24T02:11:39;27.27;;;17.05;;
63087;SDS011;49173;43.164;27.786;2022-12-24T02:14:09;28.40;;;16.85;;
63087;SDS011;49173;43.164;27.786;2022-12-24T02:19:39;27.58;;;18.17;;
63087;SDS011;49173;43.164;27.786;2022-12-24T02:25:14;34.38;;;20.23;;
63087;SDS011;49173;43.164;27.786;2022-12-24T02:31:14;32.72;;;18.52;;
63087;SDS011;49173;43.164;27.786;2022-12-24T02:34:07;29.38;;;18.08;;
63087;SDS011;49173;43.164;27.786;2022-12-24T02:37:24;30.30;;;17.65;;
63087;SDS011;49173;43.164;27.786;2022-12-24T02:42:07;26.90;;;16.92;;
63087;SDS011;49173;43.164;27.786;2022-12-24T02:47:13;48.08;;;26.65;;
63087;SDS011;49173;43.164;27.786;2022-12-24T02:49:44;53.83;;;27.13;;
63087;SDS011;49173;43.164;27.786;2022-12-24T02:52:35;40.20;;;23.27;;
63087;SDS011;49173;43.164;27.786;2022-12-24T02:55:01;35.90;;;19.95;;
63087;SDS011;49173;43.164;27.786;2022-12-24T03:00:26;24.42;;;18.27;;
63087;SDS011;49173;43.164;27.786;2022-12-24T03:03:26;29.30;;;16.95;;
63087;SDS011;49173;43.164;27.786;2022-12-24T03:06:13;25.40;;;17.88;;
63087;SDS011;49173;43.164;27.786;2022-12-24T03:08:59;25.25;;;16.20;;
63087;SDS011;49173;43.164;27.786;2022-12-24T03:11:31;26.83;;;16.30;;
63087;SDS011;49173;43.164;27.786;2022-12-24T03:14:00;24.35;;;16.13;;
63087;SDS011;49173;43.164;27.786;2022-12-24T03:16:28;23.88;;;16.52;;
63087;SDS011;49173;43.164;27.786;2022-12-24T03:18:54;24.35;;;16.48;;
63087;SDS011;49173;43.164;27.786;2022-12-24T03:23:51;28.85;;;18.65;;
63087;SDS011;49173;43.164;27.786;2022-12-24T03:26:17;31.42;;;19.98;;
63087;SDS011;49173;43.164;27.786;2022-12-24T03:28:44;28.50;;;18.25;;
63087;SDS011;49173;43.164;27.786;2022-12-24T03:31:11;25.70;;;17.15;;
63087;SDS011;49173;43.164;27.786;2022-12-24T03:33:38;30.80;;;18.95;;
63087;SDS011;49173;43.164;27.786;2022-12-24T03:36:05;33.00;;;20.02;;
63087;SDS011;49173;43.164;27.786;2022-12-24T03:38:32;32.38;;;19.67;;
63087;SDS011;49173;43.164;27.786;2022-12-24T03:40:58;33.20;;;19.55;;
63087;SDS011;49173;43.164;27.786;2022-12-24T03:43:24;30.08;;;18.67;;
63087;SDS011;49173;43.164;27.786;2022-12-24T03:45:50;30.58;;;18.10;;
63087;SDS011;49173;43.164;27.786;2022-12-24T03:48:15;25.98;;;16.35;;
63087;SDS011;49173;43.164;27.786;2022-12-24T03:50:41;31.27;;;17.10;;
63087;SDS011;49173;43.164;27.786;2022-12-24T03:53:07;26.00;;;17.10;;
63087;SDS011;49173;43.164;27.786;2022-12-24T03:55:32;231.57;;;66.00;;
63087;SDS011;49173;43.164;27.786;2022-12-24T03:57:58;152.23;;;51.72;;
63087;SDS011;49173;43.164;27.786;2022-12-24T04:00:24;56.95;;;25.63;;
63087;SDS011;49173;43.164;27.786;2022-12-24T04:02:49;31.92;;;19.27;;
63087;SDS011;49173;43.164;27.786;2022-12-24T04:05:16;28.15;;;18.63;;
63087;SDS011;49173;43.164;27.786;2022-12-24T04:07:44;27.77;;;17.60;;
63087;SDS011;49173;43.164;27.786;2022-12-24T04:10:09;29.88;;;18.02;;
63087;SDS011;49173;43.164;27.786;2022-12-24T04:12:36;33.85;;;20.40;;
63087;SDS011;49173;43.164;27.786;2022-12-24T04:15:02;63.33;;;31.25;;
63087;SDS011;49173;43.164;27.786;2022-12-24T04:17:29;84.18;;;35.92;;
63087;SDS011;49173;43.164;27.786;2022-12-24T04:19:55;106.07;;;42.92;;
63087;SDS011;49173;43.164;27.786;2022-12-24T04:22:20;88.78;;;38.88;;
63087;SDS011;49173;43.164;27.786;2022-12-24T04:24:46;78.03;;;32.53;;
63087;SDS011;49173;43.164;27.786;2022-12-24T04:27:12;47.83;;;26.02;;
63087;SDS011;49173;43.164;27.786;2022-12-24T04:29:39;47.22;;;26.58;;
63087;SDS011;49173;43.164;27.786;2022-12-24T04:32:05;85.63;;;38.72;;
63087;SDS011;49173;43.164;27.786;2022-12-24T04:34:30;57.22;;;30.63;;
63087;SDS011;49173;43.164;27.786;2022-12-24T04:36:56;49.13;;;28.58;;
63087;SDS011;49173;43.164;27.786;2022-12-24T04:39:22;38.60;;;27.10;;
63087;SDS011;49173;43.164;27.786;2022-12-24T04:41:48;38.00;;;23.98;;
63087;SDS011;49173;43.164;27.786;2022-12-24T04:44:14;31.23;;;20.27;;
63087;SDS011;49173;43.164;27.786;2022-12-24T04:46:40;30.48;;;19.67;;
63087;SDS011;49173;43.164;27.786;2022-12-24T04:49:06;32.05;;;21.17;;
63087;SDS011;49173;43.164;27.786;2022-12-24T04:51:33;34.97;;;21.83;;
63087;SDS011;49173;43.164;27.786;2022-12-24T04:53:59;35.63;;;21.08;;
63087;SDS011;49173;43.164;27.786;2022-12-24T04:56:26;34.22;;;21.30;;
63087;SDS011;49173;43.164;27.786;2022-12-24T04:58:54;32.13;;;20.88;;
63087;SDS011;49173;43.164;27.786;2022-12-24T05:01:25;34.08;;;20.65;;
63087;SDS011;49173;43.164;27.786;2022-12-24T05:03:52;36.80;;;22.20;;
63087;SDS011;49173;43.164;27.786;2022-12-24T05:06:20;31.33;;;20.92;;
63087;SDS011;49173;43.164;27.786;2022-12-24T05:08:48;57.80;;;28.83;;
63087;SDS011;49173;43.164;27.786;2022-12-24T05:11:14;91.97;;;41.75;;
63087;SDS011;49173;43.164;27.786;2022-12-24T05:13:43;144.05;;;58.80;;
63087;SDS011;49173;43.164;27.786;2022-12-24T05:16:10;109.85;;;49.75;;
63087;SDS011;49173;43.164;27.786;2022-12-24T05:18:37;99.15;;;51.42;;
63087;SDS011;49173;43.164;27.786;2022-12-24T05:21:06;84.03;;;49.50;;
63087;SDS011;49173;43.164;27.786;2022-12-24T05:23:33;59.70;;;37.40;;
63087;SDS011;49173;43.164;27.786;2022-12-24T05:26:22;42.65;;;29.58;;
63087;SDS011;49173;43.164;27.786;2022-12-24T05:28:53;41.45;;;28.23;;
63087;SDS011;49173;43.164;27.786;2022-12-24T05:31:20;45.80;;;30.90;;
63087;SDS011;49173;43.164;27.786;2022-12-24T05:33:48;54.72;;;34.05;;
63087;SDS011;49173;43.164;27.786;2022-12-24T05:36:14;54.25;;;35.80;;
63087;SDS011;49173;43.164;27.786;2022-12-24T05:38:40;52.20;;;31.48;;
63087;SDS011;49173;43.164;27.786;2022-12-24T05:41:07;49.25;;;29.25;;
63087;SDS011;49173;43.164;27.786;2022-12-24T05:43:36;38.25;;;24.58;;
63087;SDS011;49173;43.164;27.786;2022-12-24T05:46:04;37.15;;;24.80;;
63087;SDS011;49173;43.164;27.786;2022-12-24T05:48:31;39.05;;;25.27;;
63087;SDS011;49173;43.164;27.786;2022-12-24T05:50:58;38.80;;;23.98;;
63087;SDS011;49173;43.164;27.786;2022-12-24T05:53:24;36.35;;;23.05;;
63087;SDS011;49173;43.164;27.786;2022-12-24T05:55:50;45.40;;;28.88;;
63087;SDS011;49173;43.164;27.786;2022-12-24T05:58:15;50.05;;;29.98;;
63087;SDS011;49173;43.164;27.786;2022-12-24T06:00:41;62.28;;;37.55;;
63087;SDS011;49173;43.164;27.786;2022-12-24T06:03:07;58.58;;;36.60;;
63087;SDS011;49173;43.164;27.786;2022-12-24T06:05:33;61.72;;;39.30;;
63087;SDS011;49173;43.164;27.786;2022-12-24T06:07:59;46.95;;;30.92;;
63087;SDS011;49173;43.164;27.786;2022-12-24T06:10:25;40.15;;;26.02;;
63087;SDS011;49173;43.164;27.786;2022-12-24T06:12:50;41.45;;;27.35;;
63087;SDS011;49173;43.164;27.786;2022-12-24T06:15:16;64.00;;;35.17;;
63087;SDS011;49173;43.164;27.786;2022-12-24T06:17:42;53.50;;;31.92;;
63087;SDS011;49173;43.164;27.786;2022-12-24T06:20:07;50.05;;;30.85;;
63087;SDS011;49173;43.164;27.786;2022-12-24T06:22:33;42.72;;;30.73;;
63087;SDS011;49173;43.164;27.786;2022-12-24T06:24:59;45.72;;;30.40;;
63087;SDS011;49173;43.164;27.786;2022-12-24T06:27:26;54.78;;;32.40;;
63087;SDS011;49173;43.164;27.786;2022-12-24T06:29:51;246.65;;;86.25;;
63087;SDS011;49173;43.164;27.786;2022-12-24T06:32:17;124.95;;;53.25;;
63087;SDS011;49173;43.164;27.786;2022-12-24T06:34:44;69.85;;;35.67;;
63087;SDS011;49173;43.164;27.786;2022-12-24T06:37:10;41.95;;;25.60;;
63087;SDS011;49173;43.164;27.786;2022-12-24T06:39:45;50.80;;;30.02;;
63087;SDS011;49173;43.164;27.786;2022-12-24T06:42:14;55.60;;;39.30;;
63087;SDS011;49173;43.164;27.786;2022-12-24T06:44:40;72.68;;;47.92;;
63087;SDS011;49173;43.164;27.786;2022-12-24T06:47:05;53.47;;;37.60;;
63087;SDS011;49173;43.164;27.786;2022-12-24T06:49:31;37.58;;;25.73;;
63087;SDS011;49173;43.164;27.786;2022-12-24T06:51:57;38.45;;;23.60;;
63087;SDS011;49173;43.164;27.786;2022-12-24T06:54:22;38.95;;;24.05;;
63087;SDS011;49173;43.164;27.786;2022-12-24T06:56:48;35.60;;;24.92;;
63087;SDS011;49173;43.164;27.786;2022-12-24T06:59:14;40.03;;;26.05;;
63087;SDS011;49173;43.164;27.786;2022-12-24T07:01:39;49.70;;;28.70;;
63087;SDS011;49173;43.164;27.786;2022-12-24T07:04:05;61.70;;;40.40;;
63087;SDS011;49173;43.164;27.786;2022-12-24T07:06:31;64.28;;;43.05;;
63087;SDS011;49173;43.164;27.786;2022-12-24T07:08:57;73.53;;;46.00;;
63087;SDS011;49173;43.164;27.786;2022-12-24T07:11:23;72.45;;;47.75;;
63087;SDS011;49173;43.164;27.786;2022-12-24T07:13:49;74.40;;;49.63;;
63087;SDS011;49173;43.164;27.786;2022-12-24T07:16:16;77.07;;;50.60;;
63087;SDS011;49173;43.164;27.786;2022-12-24T07:18:42;78.75;;;51.83;;
63087;SDS011;49173;43.164;27.786;2022-12-24T07:21:08;76.85;;;50.47;;
63087;SDS011;49173;43.164;27.786;2022-12-24T07:23:34;74.82;;;46.97;;
63087;SDS011;49173;43.164;27.786;2022-12-24T07:26:00;77.95;;;50.80;;
63087;SDS011;49173;43.164;27.786;2022-12-24T07:28:27;73.25;;;50.90;;
63087;SDS011;49173;43.164;27.786;2022-12-24T07:30:54;66.35;;;45.58;;
63087;SDS011;49173;43.164;27.786;2022-12-24T07:33:21;69.63;;;47.25;;
63087;SDS011;49173;43.164;27.786;2022-12-24T07:35:56;69.43;;;45.47;;
63087;SDS011;49173;43.164;27.786;2022-12-24T07:38:26;55.10;;;39.25;;
63087;SDS011;49173;43.164;27.786;2022-12-24T07:40:51;63.03;;;41.67;;
63087;SDS011;49173;43.164;27.786;2022-12-24T07:43:17;69.57;;;45.33;;
63087;SDS011;49173;43.164;27.786;2022-12-24T07:45:43;111.63;;;62.28;;
63087;SDS011;49173;43.164;27.786;2022-12-24T07:48:09;74.05;;;44.50;;
63087;SDS011;49173;43.164;27.786;2022-12-24T07:50:34;113.20;;;55.92;;
63087;SDS011;49173;43.164;27.786;2022-12-24T07:53:00;96.28;;;49.50;;
63087;SDS011;49173;43.164;27.786;2022-12-24T07:55:30;67.95;;;38.78;;
63087;SDS011;49173;43.164;27.786;2022-12-24T07:57:56;56.25;;;33.70;;
63087;SDS011;49173;43.164;27.786;2022-12-24T08:00:22;40.95;;;29.13;;
63087;SDS011;49173;43.164;27.786;2022-12-24T08:02:48;39.83;;;26.05;;
63087;SDS011;49173;43.164;27.786;2022-12-24T08:05:13;45.20;;;30.58;;
63087;SDS011;49173;43.164;27.786;2022-12-24T08:07:40;43.45;;;28.67;;
63087;SDS011;49173;43.164;27.786;2022-12-24T08:10:06;41.15;;;25.63;;
63087;SDS011;49173;43.164;27.786;2022-12-24T08:12:33;41.80;;;27.38;;
63087;SDS011;49173;43.164;27.786;2022-12-24T08:14:58;39.22;;;26.30;;
63087;SDS011;49173;43.164;27.786;2022-12-24T08:17:24;50.40;;;35.03;;
63087;SDS011;49173;43.164;27.786;2022-12-24T08:19:50;48.75;;;35.75;;
63087;SDS011;49173;43.164;27.786;2022-12-24T08:22:15;43.08;;;30.50;;
63087;SDS011;49173;43.164;27.786;2022-12-24T08:24:41;36.55;;;24.25;;
63087;SDS011;49173;43.164;27.786;2022-12-24T08:27:07;39.10;;;26.27;;
63087;SDS011;49173;43.164;27.786;2022-12-24T08:29:32;37.38;;;25.33;;
63087;SDS011;49173;43.164;27.786;2022-12-24T08:31:58;35.80;;;25.48;;
63087;SDS011;49173;43.164;27.786;2022-12-24T08:34:24;42.00;;;28.65;;
63087;SDS011;49173;43.164;27.786;2022-12-24T08:36:50;43.30;;;28.73;;
63087;SDS011;49173;43.164;27.786;2022-12-24T08:39:15;39.58;;;27.25;;
63087;SDS011;49173;43.164;27.786;2022-12-24T08:41:41;39.35;;;28.05;;
63087;SDS011;49173;43.164;27.786;2022-12-24T08:44:07;42.42;;;28.80;;
63087;SDS011;49173;43.164;27.786;2022-12-24T08:46:32;46.42;;;29.77;;
63087;SDS011;49173;43.164;27.786;2022-12-24T08:48:59;42.75;;;29.42;;
63087;SDS011;49173;43.164;27.786;2022-12-24T08:51:25;42.00;;;26.38;;
63087;SDS011;49173;43.164;27.786;2022-12-24T08:53:51;39.80;;;25.67;;
63087;SDS011;49173;43.164;27.786;2022-12-24T08:56:17;37.70;;;25.90;;
63087;SDS011;49173;43.164;27.786;2022-12-24T08:58:43;35.83;;;25.30;;
63087;SDS011;49173;43.164;27.786;2022-12-24T09:01:09;35.70;;;23.60;;
63087;SDS011;49173;43.164;27.786;2022-12-24T09:03:40;38.03;;;25.65;;
63087;SDS011;49173;43.164;27.786;2022-12-24T09:06:07;31.83;;;23.38;;
63087;SDS011;49173;43.164;27.786;2022-12-24T09:08:34;30.38;;;21.00;;
63087;SDS011;49173;43.164;27.786;2022-12-24T09:11:06;34.20;;;23.35;;
63087;SDS011;49173;43.164;27.786;2022-12-24T09:13:34;33.13;;;22.05;;
63087;SDS011;49173;43.164;27.786;2022-12-24T09:16:00;37.92;;;24.15;;
63087;SDS011;49173;43.164;27.786;2022-12-24T09:18:26;30.63;;;21.58;;
63087;SDS011;49173;43.164;27.786;2022-12-24T09:20:57;32.80;;;21.23;;
63087;SDS011;49173;43.164;27.786;2022-12-24T09:23:27;31.25;;;21.75;;
63087;SDS011;49173;43.164;27.786;2022-12-24T09:25:53;31.88;;;21.08;;
63087;SDS011;49173;43.164;27.786;2022-12-24T09:28:19;33.20;;;22.42;;
63087;SDS011;49173;43.164;27.786;2022-12-24T09:30:55;33.83;;;21.90;;
63087;SDS011;49173;43.164;27.786;2022-12-24T09:33:25;33.28;;;23.35;;
63087;SDS011;49173;43.164;27.786;2022-12-24T09:35:52;32.13;;;23.38;;
63087;SDS011;49173;43.164;27.786;2022-12-24T09:38:19;35.85;;;25.83;;
63087;SDS011;49173;43.164;27.786;2022-12-24T09:40:45;30.00;;;21.90;;
63087;SDS011;49173;43.164;27.786;2022-12-24T09:43:16;33.38;;;22.58;;
63087;SDS011;49173;43.164;27.786;2022-12-24T09:45:49;32.00;;;22.30;;
63087;SDS011;49173;43.164;27.786;2022-12-24T09:48:22;27.45;;;19.08;;
63087;SDS011;49173;43.164;27.786;2022-12-24T09:50:57;30.45;;;18.95;;
63087;SDS011;49173;43.164;27.786;2022-12-24T09:53:42;28.02;;;18.75;;
63087;SDS011;49173;43.164;27.786;2022-12-24T09:56:23;26.92;;;18.77;;
63087;SDS011;49173;43.164;27.786;2022-12-24T09:59:08;25.27;;;17.63;;
63087;SDS011;49173;43.164;27.786;2022-12-24T10:01:38;25.33;;;17.25;;
63087;SDS011;49173;43.164;27.786;2022-12-24T10:04:11;24.55;;;17.17;;
63087;SDS011;49173;43.164;27.786;2022-12-24T10:06:44;23.73;;;15.93;;
63087;SDS011;49173;43.164;27.786;2022-12-24T10:09:18;24.77;;;15.75;;
63087;SDS011;49173;43.164;27.786;2022-12-24T10:14:29;17.25;;;12.07;;
63087;SDS011;49173;43.164;27.786;2022-12-24T10:17:14;13.90;;;10.90;;
63087;SDS011;49173;43.164;27.786;2022-12-24T10:22:39;16.70;;;10.93;;
63087;SDS011;49173;43.164;27.786;2022-12-24T10:25:15;19.00;;;12.80;;
63087;SDS011;49173;43.164;27.786;2022-12-24T10:27:46;13.32;;;9.80;;
63087;SDS011;49173;43.164;27.786;2022-12-24T10:30:13;15.32;;;11.30;;
63087;SDS011;49173;43.164;27.786;2022-12-24T10:32:40;15.00;;;11.35;;
63087;SDS011;49173;43.164;27.786;2022-12-24T10:35:11;14.77;;;10.20;;
63087;SDS011;49173;43.164;27.786;2022-12-24T10:37:41;16.15;;;11.50;;
63087;SDS011;49173;43.164;27.786;2022-12-24T10:40:23;15.70;;;10.45;;
63087;SDS011;49173;43.164;27.786;2022-12-24T10:42:55;11.00;;;8.23;;
63087;SDS011;49173;43.164;27.786;2022-12-24T10:45:21;14.23;;;9.07;;
63087;SDS011;49173;43.164;27.786;2022-12-24T10:47:54;15.75;;;10.65;;
63087;SDS011;49173;43.164;27.786;2022-12-24T10:50:33;15.13;;;9.80;;
63087;SDS011;49173;43.164;27.786;2022-12-24T10:53:16;12.60;;;8.50;;
63087;SDS011;49173;43.164;27.786;2022-12-24T10:55:48;13.55;;;8.93;;
63087;SDS011;49173;43.164;27.786;2022-12-24T10:58:14;13.68;;;9.32;;
63087;SDS011;49173;43.164;27.786;2022-12-24T11:00:48;13.50;;;9.57;;
63087;SDS011;49173;43.164;27.786;2022-12-24T11:05:46;15.27;;;11.23;;
63087;SDS011;49173;43.164;27.786;2022-12-24T11:08:24;16.75;;;11.27;;
63087;SDS011;49173;43.164;27.786;2022-12-24T11:10:55;17.52;;;11.20;;
63087;SDS011;49173;43.164;27.786;2022-12-24T11:13:24;22.60;;;13.20;;
63087;SDS011;49173;43.164;27.786;2022-12-24T11:15:58;18.67;;;12.00;;
63087;SDS011;49173;43.164;27.786;2022-12-24T11:18:27;19.88;;;11.85;;
63087;SDS011;49173;43.164;27.786;2022-12-24T11:20:53;20.58;;;13.15;;
63087;SDS011;49173;43.164;27.786;2022-12-24T11:23:19;16.80;;;11.07;;
63087;SDS011;49173;43.164;27.786;2022-12-24T11:25:47;16.30;;;10.25;;
63087;SDS011;49173;43.164;27.786;2022-12-24T11:28:22;21.63;;;11.25;;
63087;SDS011;49173;43.164;27.786;2022-12-24T11:33:28;17.25;;;10.65;;
63087;SDS011;49173;43.164;27.786;2022-12-24T11:35:59;15.48;;;9.98;;
63087;SDS011;49173;43.164;27.786;2022-12-24T11:38:29;13.93;;;10.35;;
63087;SDS011;49173;43.164;27.786;2022-12-24T11:40:58;15.13;;;10.68;;
63087;SDS011;49173;43.164;27.786;2022-12-24T11:43:35;14.63;;;10.15;;
63087;SDS011;49173;43.164;27.786;2022-12-24T11:46:11;14.73;;;9.85;;
63087;SDS011;49173;43.164;27.786;2022-12-24T11:51:38;19.15;;;11.00;;
63087;SDS011;49173;43.164;27.786;2022-12-24T11:54:15;16.40;;;11.65;;
63087;SDS011;49173;43.164;27.786;2022-12-24T11:56:48;23.90;;;13.80;;
63087;SDS011;49173;43.164;27.786;2022-12-24T11:59:19;22.23;;;13.07;;
63087;SDS011;49173;43.164;27.786;2022-12-24T12:04:37;29.58;;;14.23;;
63087;SDS011;49173;43.164;27.786;2022-12-24T12:07:14;18.92;;;11.80;;
63087;SDS011;49173;43.164;27.786;2022-12-24T12:09:58;14.80;;;10.50;;
63087;SDS011;49173;43.164;27.786;2022-12-24T12:12:36;16.30;;;12.23;;
63087;SDS011;49173;43.164;27.786;2022-12-24T12:15:16;17.83;;;11.65;;
63087;SDS011;49173;43.164;27.786;2022-12-24T12:17:50;17.95;;;11.60;;
63087;SDS011;49173;43.164;27.786;2022-12-24T12:23:27;17.48;;;10.80;;
63087;SDS011;49173;43.164;27.786;2022-12-24T12:28:56;16.83;;;11.05;;
63087;SDS011;49173;43.164;27.786;2022-12-24T12:31:25;17.90;;;12.10;;
63087;SDS011;49173;43.164;27.786;2022-12-24T12:34:02;20.83;;;11.88;;
63087;SDS011;49173;43.164;27.786;2022-12-24T12:36:38;21.85;;;12.52;;
63087;SDS011;49173;43.164;27.786;2022-12-24T12:39:09;18.58;;;11.13;;
63087;SDS011;49173;43.164;27.786;2022-12-24T12:44:48;19.33;;;11.75;;
63087;SDS011;49173;43.164;27.786;2022-12-24T12:53:18;17.27;;;11.20;;
63087;SDS011;49173;43.164;27.786;2022-12-24T12:58:46;20.55;;;11.98;;
63087;SDS011;49173;43.164;27.786;2022-12-24T13:20:23;26.15;;;16.30;;
63087;SDS011;49173;43.164;27.786;2022-12-24T13:22:58;29.52;;;16.58;;
63087;SDS011;49173;43.164;27.786;2022-12-24T13:28:17;32.67;;;18.13;;
63087;SDS011;49173;43.164;27.786;2022-12-24T13:38:47;16.73;;;11.20;;
63087;SDS011;49173;43.164;27.786;2022-12-24T13:51:44;16.15;;;9.35;;
63087;SDS011;49173;43.164;27.786;2022-12-24T13:54:11;9.13;;;6.32;;
63087;SDS011;49173;43.164;27.786;2022-12-24T13:56:39;11.55;;;7.00;;
63087;SDS011;49173;43.164;27.786;2022-12-24T13:59:19;8.50;;;6.47;;
63087;SDS011;49173;43.164;27.786;2022-12-24T14:01:57;14.38;;;6.90;;
63087;SDS011;49173;43.164;27.786;2022-12-24T14:04:24;12.82;;;8.20;;
63087;SDS011;49173;43.164;27.786;2022-12-24T14:06:58;17.35;;;11.57;;
63087;SDS011;49173;43.164;27.786;2022-12-24T14:09:27;15.65;;;11.48;;
63087;SDS011;49173;43.164;27.786;2022-12-24T14:17:00;14.60;;;10.65;;
63087;SDS011;49173;43.164;27.786;2022-12-24T14:19:42;16.25;;;10.98;;
63087;SDS011;49173;43.164;27.786;2022-12-24T14:22:18;15.32;;;10.85;;
63087;SDS011;49173;43.164;27.786;2022-12-24T14:28:03;12.05;;;8.00;;
63087;SDS011;49173;43.164;27.786;2022-12-24T14:30:36;15.98;;;8.15;;
63087;SDS011;49173;43.164;27.786;2022-12-24T14:33:01;10.45;;;7.53;;
63087;SDS011;49173;43.164;27.786;2022-12-24T14:35:28;12.98;;;8.35;;
63087;SDS011;49173;43.164;27.786;2022-12-24T14:38:01;10.63;;;8.18;;
63087;SDS011;49173;43.164;27.786;2022-12-24T14:45:43;11.55;;;5.95;;
63087;SDS011;49173;43.164;27.786;2022-12-24T14:48:21;10.82;;;6.80;;
63087;SDS011;49173;43.164;27.786;2022-12-24T14:51:19;14.27;;;7.82;;
63087;SDS011;49173;43.164;27.786;2022-12-24T14:56:44;11.32;;;6.45;;
63087;SDS011;49173;43.164;27.786;2022-12-24T14:59:14;12.27;;;7.22;;
63087;SDS011;49173;43.164;27.786;2022-12-24T15:01:44;12.15;;;7.78;;
63087;SDS011;49173;43.164;27.786;2022-12-24T15:09:19;14.00;;;9.73;;
63087;SDS011;49173;43.164;27.786;2022-12-24T15:11:58;13.07;;;8.95;;
63087;SDS011;49173;43.164;27.786;2022-12-24T15:14:28;16.02;;;9.57;;
63087;SDS011;49173;43.164;27.786;2022-12-24T15:17:06;13.48;;;8.70;;
63087;SDS011;49173;43.164;27.786;2022-12-24T15:19:35;17.38;;;9.55;;
63087;SDS011;49173;43.164;27.786;2022-12-24T15:22:07;12.13;;;8.07;;
63087;SDS011;49173;43.164;27.786;2022-12-24T15:24:42;10.82;;;6.75;;
63087;SDS011;49173;43.164;27.786;2022-12-24T15:27:21;12.88;;;6.88;;
63087;SDS011;49173;43.164;27.786;2022-12-24T15:29:50;14.93;;;8.25;;
63087;SDS011;49173;43.164;27.786;2022-12-24T15:32:32;10.55;;;6.70;;
63087;SDS011;49173;43.164;27.786;2022-12-24T15:34:58;11.90;;;7.47;;
63087;SDS011;49173;43.164;27.786;2022-12-24T15:37:25;20.42;;;10.40;;
63087;SDS011;49173;43.164;27.786;2022-12-24T15:39:56;20.85;;;9.43;;
63087;SDS011;49173;43.164;27.786;2022-12-24T15:42:25;16.17;;;9.18;;
63087;SDS011;49173;43.164;27.786;2022-12-24T15:47:32;16.67;;;9.33;;
63087;SDS011;49173;43.164;27.786;2022-12-24T15:50:14;15.25;;;9.55;;
63087;SDS011;49173;43.164;27.786;2022-12-24T15:52:43;13.25;;;8.98;;
63087;SDS011;49173;43.164;27.786;2022-12-24T15:58:00;16.60;;;10.77;;
63087;SDS011;49173;43.164;27.786;2022-12-24T16:00:29;17.48;;;10.65;;
63087;SDS011;49173;43.164;27.786;2022-12-24T16:05:57;19.38;;;12.13;;
63087;SDS011;49173;43.164;27.786;2022-12-24T16:08:33;19.42;;;12.90;;
63087;SDS011;49173;43.164;27.786;2022-12-24T16:13:58;16.67;;;10.63;;
63087;SDS011;49173;43.164;27.786;2022-12-24T16:16:31;17.67;;;9.77;;
63087;SDS011;49173;43.164;27.786;2022-12-24T16:19:05;19.58;;;11.10;;
63087;SDS011;49173;43.164;27.786;2022-12-24T16:21:34;20.35;;;12.07;;
63087;SDS011;49173;43.164;27.786;2022-12-24T16:24:06;15.95;;;10.40;;
63087;SDS011;49173;43.164;27.786;2022-12-24T16:26:49;16.38;;;9.50;;
63087;SDS011;49173;43.164;27.786;2022-12-24T16:29:15;17.02;;;11.75;;
63087;SDS011;49173;43.164;27.786;2022-12-24T16:34:17;22.58;;;12.45;;